Anchor Bay, California
Current Conditions -  °F | °C
As of 12:19 AM on Saturday 25 Oct 2014 (Local Time) from KUKI Reporting Station
Overcast Overcast  
Wind Chill: 62°   Ceiling: 2600
Heat Index: 62°   Visibility: 10mi
Dew Point: 54°   Wind: 12mph
Humidity: 75%   Direction: 140°SE
Pressure: 29.85"   Gusts: 22mph
Location:  38.8361°N, 123.43°W
Report Text: KUKI 250719Z AUTO 14010G19KT 10SM BKN026 OVC033 17/12 A2985 RMK AO2 T01670122
Loading
Personal Weather Stations






























Interactive Weather Map New forecast layout! Learn more

10-Day Weather Forecast

Advertisements
Track Severe Weather on mobile